sensor_id;sensor_type;location;lat;lon;timestamp;P1;durP1;ratioP1;P2;durP2;ratioP2
1378;SDS011;683;48.738;9.226;2023-03-01T00:01:42;23.20;;;14.27;;
1378;SDS011;683;48.738;9.226;2023-03-01T00:04:09;18.80;;;13.87;;
1378;SDS011;683;48.738;9.226;2023-03-01T00:06:41;21.23;;;14.70;;
1378;SDS011;683;48.738;9.226;2023-03-01T00:09:13;25.43;;;15.20;;
1378;SDS011;683;48.738;9.226;2023-03-01T00:11:41;26.70;;;14.50;;
1378;SDS011;683;48.738;9.226;2023-03-01T00:14:09;20.90;;;14.03;;
1378;SDS011;683;48.738;9.226;2023-03-01T00:16:37;23.70;;;15.83;;
1378;SDS011;683;48.738;9.226;2023-03-01T00:19:08;19.63;;;15.50;;
1378;SDS011;683;48.738;9.226;2023-03-01T00:21:41;21.63;;;13.47;;
1378;SDS011;683;48.738;9.226;2023-03-01T00:24:09;23.37;;;15.47;;
1378;SDS011;683;48.738;9.226;2023-03-01T00:26:36;27.03;;;15.00;;
1378;SDS011;683;48.738;9.226;2023-03-01T00:29:06;25.20;;;16.33;;
1378;SDS011;683;48.738;9.226;2023-03-01T00:31:33;23.60;;;13.97;;
1378;SDS011;683;48.738;9.226;2023-03-01T00:34:02;24.10;;;16.33;;
1378;SDS011;683;48.738;9.226;2023-03-01T00:36:33;22.50;;;16.50;;
1378;SDS011;683;48.738;9.226;2023-03-01T00:39:02;21.13;;;15.67;;
1378;SDS011;683;48.738;9.226;2023-03-01T00:41:30;22.73;;;14.90;;
1378;SDS011;683;48.738;9.226;2023-03-01T00:44:02;21.90;;;16.10;;
1378;SDS011;683;48.738;9.226;2023-03-01T00:46:30;23.37;;;15.20;;
1378;SDS011;683;48.738;9.226;2023-03-01T00:48:59;19.40;;;15.23;;
1378;SDS011;683;48.738;9.226;2023-03-01T00:51:28;20.00;;;15.30;;
1378;SDS011;683;48.738;9.226;2023-03-01T00:53:57;24.37;;;15.20;;
1378;SDS011;683;48.738;9.226;2023-03-01T00:56:28;21.70;;;14.60;;
1378;SDS011;683;48.738;9.226;2023-03-01T00:58:59;26.37;;;16.20;;
1378;SDS011;683;48.738;9.226;2023-03-01T01:01:30;27.93;;;17.50;;
1378;SDS011;683;48.738;9.226;2023-03-01T01:04:01;21.90;;;16.20;;
1378;SDS011;683;48.738;9.226;2023-03-01T01:06:31;21.23;;;14.97;;
1378;SDS011;683;48.738;9.226;2023-03-01T01:09:03;22.17;;;14.77;;
1378;SDS011;683;48.738;9.226;2023-03-01T01:11:32;26.27;;;16.03;;
1378;SDS011;683;48.738;9.226;2023-03-01T01:14:01;21.07;;;15.17;;
1378;SDS011;683;48.738;9.226;2023-03-01T01:16:32;21.47;;;15.27;;
1378;SDS011;683;48.738;9.226;2023-03-01T01:19:00;26.37;;;14.80;;
1378;SDS011;683;48.738;9.226;2023-03-01T01:21:30;20.27;;;14.27;;
1378;SDS011;683;48.738;9.226;2023-03-01T01:24:04;23.07;;;16.73;;
1378;SDS011;683;48.738;9.226;2023-03-01T01:26:36;22.17;;;16.27;;
1378;SDS011;683;48.738;9.226;2023-03-01T01:29:04;22.17;;;15.07;;
1378;SDS011;683;48.738;9.226;2023-03-01T01:31:33;20.27;;;15.10;;
1378;SDS011;683;48.738;9.226;2023-03-01T01:34:02;22.53;;;14.27;;
1378;SDS011;683;48.738;9.226;2023-03-01T01:36:31;19.90;;;14.03;;
1378;SDS011;683;48.738;9.226;2023-03-01T01:38:58;22.40;;;16.53;;
1378;SDS011;683;48.738;9.226;2023-03-01T01:41:27;21.53;;;15.43;;
1378;SDS011;683;48.738;9.226;2023-03-01T01:46:54;21.43;;;15.60;;
1378;SDS011;683;48.738;9.226;2023-03-01T01:49:27;26.20;;;18.10;;
1378;SDS011;683;48.738;9.226;2023-03-01T01:52:07;22.63;;;15.00;;
1378;SDS011;683;48.738;9.226;2023-03-01T01:54:41;27.60;;;18.17;;
1378;SDS011;683;48.738;9.226;2023-03-01T01:57:14;21.23;;;15.33;;
1378;SDS011;683;48.738;9.226;2023-03-01T01:59:50;23.37;;;14.17;;
1378;SDS011;683;48.738;9.226;2023-03-01T02:02:23;23.50;;;15.93;;
1378;SDS011;683;48.738;9.226;2023-03-01T02:04:56;24.30;;;16.60;;
1378;SDS011;683;48.738;9.226;2023-03-01T02:07:30;25.73;;;16.83;;
1378;SDS011;683;48.738;9.226;2023-03-01T02:09:59;27.30;;;16.67;;
1378;SDS011;683;48.738;9.226;2023-03-01T02:12:28;22.30;;;15.63;;
1378;SDS011;683;48.738;9.226;2023-03-01T02:14:58;22.80;;;16.43;;
1378;SDS011;683;48.738;9.226;2023-03-01T02:17:27;27.90;;;17.30;;
1378;SDS011;683;48.738;9.226;2023-03-01T02:19:59;22.60;;;15.37;;
1378;SDS011;683;48.738;9.226;2023-03-01T02:22:34;24.60;;;16.80;;
1378;SDS011;683;48.738;9.226;2023-03-01T02:25:07;18.80;;;14.53;;
1378;SDS011;683;48.738;9.226;2023-03-01T02:27:49;24.33;;;16.30;;
1378;SDS011;683;48.738;9.226;2023-03-01T02:30:23;24.97;;;15.80;;
1378;SDS011;683;48.738;9.226;2023-03-01T02:32:54;24.70;;;16.33;;
1378;SDS011;683;48.738;9.226;2023-03-01T02:35:30;23.70;;;16.23;;
1378;SDS011;683;48.738;9.226;2023-03-01T02:38:01;21.07;;;16.20;;
1378;SDS011;683;48.738;9.226;2023-03-01T02:40:35;23.50;;;16.80;;
1378;SDS011;683;48.738;9.226;2023-03-01T02:43:09;23.73;;;15.97;;
1378;SDS011;683;48.738;9.226;2023-03-01T02:45:47;21.90;;;14.83;;
1378;SDS011;683;48.738;9.226;2023-03-01T02:48:15;20.83;;;15.50;;
1378;SDS011;683;48.738;9.226;2023-03-01T02:50:46;24.57;;;17.10;;
1378;SDS011;683;48.738;9.226;2023-03-01T02:53:32;28.00;;;16.23;;
1378;SDS011;683;48.738;9.226;2023-03-01T02:56:06;30.13;;;17.90;;
1378;SDS011;683;48.738;9.226;2023-03-01T02:58:39;23.30;;;17.23;;
1378;SDS011;683;48.738;9.226;2023-03-01T03:01:13;20.73;;;16.17;;
1378;SDS011;683;48.738;9.226;2023-03-01T03:03:41;21.27;;;15.93;;
1378;SDS011;683;48.738;9.226;2023-03-01T03:06:10;19.67;;;14.63;;
1378;SDS011;683;48.738;9.226;2023-03-01T03:08:38;24.13;;;16.30;;
1378;SDS011;683;48.738;9.226;2023-03-01T03:11:05;26.37;;;17.50;;
1378;SDS011;683;48.738;9.226;2023-03-01T03:13:35;24.70;;;16.37;;
1378;SDS011;683;48.738;9.226;2023-03-01T03:16:02;23.87;;;16.50;;
1378;SDS011;683;48.738;9.226;2023-03-01T03:18:31;24.53;;;16.80;;
1378;SDS011;683;48.738;9.226;2023-03-01T03:20:58;22.57;;;16.80;;
1378;SDS011;683;48.738;9.226;2023-03-01T03:23:28;27.37;;;17.13;;
1378;SDS011;683;48.738;9.226;2023-03-01T03:25:55;26.63;;;16.93;;
1378;SDS011;683;48.738;9.226;2023-03-01T03:28:23;23.23;;;16.83;;
1378;SDS011;683;48.738;9.226;2023-03-01T03:30:50;22.40;;;17.00;;
1378;SDS011;683;48.738;9.226;2023-03-01T03:33:17;24.57;;;17.17;;
1378;SDS011;683;48.738;9.226;2023-03-01T03:35:46;23.27;;;16.63;;
1378;SDS011;683;48.738;9.226;2023-03-01T03:38:16;21.90;;;15.70;;
1378;SDS011;683;48.738;9.226;2023-03-01T03:40:47;24.10;;;17.57;;
1378;SDS011;683;48.738;9.226;2023-03-01T03:43:16;25.30;;;17.40;;
1378;SDS011;683;48.738;9.226;2023-03-01T03:45:45;24.63;;;16.47;;
1378;SDS011;683;48.738;9.226;2023-03-01T03:48:13;24.37;;;15.67;;
1378;SDS011;683;48.738;9.226;2023-03-01T03:50:40;26.10;;;17.97;;
1378;SDS011;683;48.738;9.226;2023-03-01T03:53:23;24.20;;;16.40;;
1378;SDS011;683;48.738;9.226;2023-03-01T03:55:52;23.53;;;15.73;;
1378;SDS011;683;48.738;9.226;2023-03-01T03:58:20;19.60;;;14.70;;
1378;SDS011;683;48.738;9.226;2023-03-01T04:00:51;27.23;;;18.07;;
1378;SDS011;683;48.738;9.226;2023-03-01T04:03:22;24.40;;;17.93;;
1378;SDS011;683;48.738;9.226;2023-03-01T04:05:50;22.27;;;17.00;;
1378;SDS011;683;48.738;9.226;2023-03-01T04:08:18;26.50;;;17.37;;
1378;SDS011;683;48.738;9.226;2023-03-01T04:10:55;27.23;;;17.17;;
1378;SDS011;683;48.738;9.226;2023-03-01T04:13:24;26.20;;;17.40;;
1378;SDS011;683;48.738;9.226;2023-03-01T04:15:55;26.87;;;18.03;;
1378;SDS011;683;48.738;9.226;2023-03-01T04:18:28;23.17;;;16.90;;
1378;SDS011;683;48.738;9.226;2023-03-01T04:20:56;26.60;;;17.90;;
1378;SDS011;683;48.738;9.226;2023-03-01T04:23:23;24.50;;;17.80;;
1378;SDS011;683;48.738;9.226;2023-03-01T04:25:51;24.60;;;15.70;;
1378;SDS011;683;48.738;9.226;2023-03-01T04:28:21;26.50;;;18.00;;
1378;SDS011;683;48.738;9.226;2023-03-01T04:30:50;27.87;;;17.13;;
1378;SDS011;683;48.738;9.226;2023-03-01T04:33:18;29.83;;;18.37;;
1378;SDS011;683;48.738;9.226;2023-03-01T04:35:46;26.10;;;18.43;;
1378;SDS011;683;48.738;9.226;2023-03-01T04:38:14;29.30;;;18.67;;
1378;SDS011;683;48.738;9.226;2023-03-01T04:40:42;29.80;;;17.80;;
1378;SDS011;683;48.738;9.226;2023-03-01T04:43:11;25.07;;;17.90;;
1378;SDS011;683;48.738;9.226;2023-03-01T04:45:39;25.20;;;17.30;;
1378;SDS011;683;48.738;9.226;2023-03-01T04:48:07;25.87;;;16.60;;
1378;SDS011;683;48.738;9.226;2023-03-01T04:50:34;24.77;;;16.73;;
1378;SDS011;683;48.738;9.226;2023-03-01T04:53:02;26.67;;;17.90;;
1378;SDS011;683;48.738;9.226;2023-03-01T04:55:29;28.60;;;18.03;;
1378;SDS011;683;48.738;9.226;2023-03-01T04:57:56;26.27;;;18.30;;
1378;SDS011;683;48.738;9.226;2023-03-01T05:00:28;27.60;;;18.43;;
1378;SDS011;683;48.738;9.226;2023-03-01T05:02:55;24.30;;;16.83;;
1378;SDS011;683;48.738;9.226;2023-03-01T05:05:25;25.00;;;16.80;;
1378;SDS011;683;48.738;9.226;2023-03-01T05:07:55;24.90;;;18.97;;
1378;SDS011;683;48.738;9.226;2023-03-01T05:10:24;26.90;;;17.97;;
1378;SDS011;683;48.738;9.226;2023-03-01T05:12:56;26.30;;;17.67;;
1378;SDS011;683;48.738;9.226;2023-03-01T05:15:23;26.50;;;17.87;;
1378;SDS011;683;48.738;9.226;2023-03-01T05:17:53;30.50;;;19.93;;
1378;SDS011;683;48.738;9.226;2023-03-01T05:20:24;19.90;;;15.10;;
1378;SDS011;683;48.738;9.226;2023-03-01T05:22:54;26.23;;;18.47;;
1378;SDS011;683;48.738;9.226;2023-03-01T05:25:23;25.80;;;17.70;;
1378;SDS011;683;48.738;9.226;2023-03-01T05:27:55;27.40;;;18.73;;
1378;SDS011;683;48.738;9.226;2023-03-01T05:30:22;28.07;;;18.13;;
1378;SDS011;683;48.738;9.226;2023-03-01T05:32:50;23.87;;;17.10;;
1378;SDS011;683;48.738;9.226;2023-03-01T05:35:22;28.03;;;19.30;;
1378;SDS011;683;48.738;9.226;2023-03-01T05:37:50;24.93;;;17.30;;
1378;SDS011;683;48.738;9.226;2023-03-01T05:40:22;23.27;;;17.97;;
1378;SDS011;683;48.738;9.226;2023-03-01T05:42:50;27.63;;;18.23;;
1378;SDS011;683;48.738;9.226;2023-03-01T05:45:20;24.53;;;17.43;;
1378;SDS011;683;48.738;9.226;2023-03-01T05:47:48;25.30;;;17.53;;
1378;SDS011;683;48.738;9.226;2023-03-01T05:50:17;27.07;;;17.30;;
1378;SDS011;683;48.738;9.226;2023-03-01T05:52:51;27.67;;;19.80;;
1378;SDS011;683;48.738;9.226;2023-03-01T05:55:20;27.93;;;17.67;;
1378;SDS011;683;48.738;9.226;2023-03-01T05:57:48;24.33;;;17.63;;
1378;SDS011;683;48.738;9.226;2023-03-01T06:00:17;29.07;;;18.87;;
1378;SDS011;683;48.738;9.226;2023-03-01T06:02:47;26.00;;;18.30;;
1378;SDS011;683;48.738;9.226;2023-03-01T06:05:15;28.83;;;18.73;;
1378;SDS011;683;48.738;9.226;2023-03-01T06:07:42;28.07;;;18.43;;
1378;SDS011;683;48.738;9.226;2023-03-01T06:10:13;24.03;;;18.20;;
1378;SDS011;683;48.738;9.226;2023-03-01T06:12:45;26.63;;;17.90;;
1378;SDS011;683;48.738;9.226;2023-03-01T06:15:13;24.47;;;17.93;;
1378;SDS011;683;48.738;9.226;2023-03-01T06:17:42;29.90;;;19.40;;
1378;SDS011;683;48.738;9.226;2023-03-01T06:20:14;28.70;;;18.73;;
1378;SDS011;683;48.738;9.226;2023-03-01T06:22:43;27.33;;;18.40;;
1378;SDS011;683;48.738;9.226;2023-03-01T06:25:13;25.53;;;17.77;;
1378;SDS011;683;48.738;9.226;2023-03-01T06:27:46;27.03;;;17.13;;
1378;SDS011;683;48.738;9.226;2023-03-01T06:30:15;28.33;;;19.37;;
1378;SDS011;683;48.738;9.226;2023-03-01T06:32:44;23.97;;;17.87;;
1378;SDS011;683;48.738;9.226;2023-03-01T06:35:12;25.53;;;18.00;;
1378;SDS011;683;48.738;9.226;2023-03-01T06:37:42;26.60;;;18.20;;
1378;SDS011;683;48.738;9.226;2023-03-01T06:40:11;25.50;;;17.03;;
1378;SDS011;683;48.738;9.226;2023-03-01T06:42:41;32.47;;;20.10;;
1378;SDS011;683;48.738;9.226;2023-03-01T06:45:09;28.20;;;18.40;;
1378;SDS011;683;48.738;9.226;2023-03-01T06:47:40;31.13;;;20.00;;
1378;SDS011;683;48.738;9.226;2023-03-01T06:50:07;27.27;;;18.17;;
1378;SDS011;683;48.738;9.226;2023-03-01T06:52:37;27.37;;;17.43;;
1378;SDS011;683;48.738;9.226;2023-03-01T06:55:05;29.20;;;18.73;;
1378;SDS011;683;48.738;9.226;2023-03-01T06:57:36;24.90;;;17.40;;
1378;SDS011;683;48.738;9.226;2023-03-01T07:00:03;28.83;;;19.90;;
1378;SDS011;683;48.738;9.226;2023-03-01T07:02:32;29.17;;;18.70;;
1378;SDS011;683;48.738;9.226;2023-03-01T07:04:59;26.60;;;18.40;;
1378;SDS011;683;48.738;9.226;2023-03-01T07:07:27;29.27;;;19.20;;
1378;SDS011;683;48.738;9.226;2023-03-01T07:09:54;29.03;;;20.40;;
1378;SDS011;683;48.738;9.226;2023-03-01T07:12:21;34.20;;;19.60;;
1378;SDS011;683;48.738;9.226;2023-03-01T07:14:52;30.60;;;20.50;;
1378;SDS011;683;48.738;9.226;2023-03-01T07:17:19;28.60;;;20.07;;
1378;SDS011;683;48.738;9.226;2023-03-01T07:19:47;32.70;;;19.73;;
1378;SDS011;683;48.738;9.226;2023-03-01T07:22:14;27.10;;;18.90;;
1378;SDS011;683;48.738;9.226;2023-03-01T07:24:41;25.70;;;19.33;;
1378;SDS011;683;48.738;9.226;2023-03-01T07:27:09;29.00;;;19.43;;
1378;SDS011;683;48.738;9.226;2023-03-01T07:29:36;31.33;;;19.80;;
1378;SDS011;683;48.738;9.226;2023-03-01T07:32:07;33.23;;;20.27;;
1378;SDS011;683;48.738;9.226;2023-03-01T07:34:36;34.87;;;19.07;;
1378;SDS011;683;48.738;9.226;2023-03-01T07:37:05;30.20;;;19.33;;
1378;SDS011;683;48.738;9.226;2023-03-01T07:39:32;34.73;;;20.47;;
1378;SDS011;683;48.738;9.226;2023-03-01T07:41:59;27.70;;;19.07;;
1378;SDS011;683;48.738;9.226;2023-03-01T07:44:28;26.83;;;19.73;;
1378;SDS011;683;48.738;9.226;2023-03-01T07:46:55;27.30;;;19.70;;
1378;SDS011;683;48.738;9.226;2023-03-01T07:49:27;35.40;;;21.10;;
1378;SDS011;683;48.738;9.226;2023-03-01T07:51:56;29.40;;;20.27;;
1378;SDS011;683;48.738;9.226;2023-03-01T07:54:26;28.10;;;17.17;;
1378;SDS011;683;48.738;9.226;2023-03-01T07:56:54;29.00;;;19.77;;
1378;SDS011;683;48.738;9.226;2023-03-01T07:59:25;34.23;;;19.30;;
1378;SDS011;683;48.738;9.226;2023-03-01T08:01:54;34.73;;;19.30;;
1378;SDS011;683;48.738;9.226;2023-03-01T08:04:22;25.83;;;18.10;;
1378;SDS011;683;48.738;9.226;2023-03-01T08:06:51;28.20;;;18.80;;
1378;SDS011;683;48.738;9.226;2023-03-01T08:09:21;27.07;;;19.93;;
1378;SDS011;683;48.738;9.226;2023-03-01T08:11:48;29.27;;;19.77;;
1378;SDS011;683;48.738;9.226;2023-03-01T08:14:17;28.13;;;19.30;;
1378;SDS011;683;48.738;9.226;2023-03-01T08:16:48;24.97;;;19.73;;
1378;SDS011;683;48.738;9.226;2023-03-01T08:19:16;28.07;;;19.40;;
1378;SDS011;683;48.738;9.226;2023-03-01T08:21:43;35.93;;;19.30;;
1378;SDS011;683;48.738;9.226;2023-03-01T08:24:12;26.17;;;19.60;;
1378;SDS011;683;48.738;9.226;2023-03-01T08:26:39;28.93;;;19.07;;
1378;SDS011;683;48.738;9.226;2023-03-01T08:29:11;32.27;;;19.67;;
1378;SDS011;683;48.738;9.226;2023-03-01T08:31:39;27.60;;;19.77;;
1378;SDS011;683;48.738;9.226;2023-03-01T08:34:13;27.70;;;20.13;;
1378;SDS011;683;48.738;9.226;2023-03-01T08:36:42;29.70;;;18.20;;
1378;SDS011;683;48.738;9.226;2023-03-01T08:39:11;28.50;;;19.20;;
1378;SDS011;683;48.738;9.226;2023-03-01T08:41:41;39.50;;;20.37;;
1378;SDS011;683;48.738;9.226;2023-03-01T08:44:09;24.83;;;17.93;;
1378;SDS011;683;48.738;9.226;2023-03-01T08:46:38;25.63;;;18.53;;
1378;SDS011;683;48.738;9.226;2023-03-01T08:49:07;30.17;;;18.60;;
1378;SDS011;683;48.738;9.226;2023-03-01T08:51:35;25.67;;;18.33;;
1378;SDS011;683;48.738;9.226;2023-03-01T08:54:05;24.27;;;17.53;;
1378;SDS011;683;48.738;9.226;2023-03-01T08:56:40;31.13;;;20.23;;
1378;SDS011;683;48.738;9.226;2023-03-01T08:59:08;25.33;;;18.57;;
1378;SDS011;683;48.738;9.226;2023-03-01T09:01:38;28.03;;;19.20;;
1378;SDS011;683;48.738;9.226;2023-03-01T09:04:08;25.97;;;17.93;;
1378;SDS011;683;48.738;9.226;2023-03-01T09:06:35;29.03;;;20.30;;
1378;SDS011;683;48.738;9.226;2023-03-01T09:09:03;28.67;;;18.80;;
1378;SDS011;683;48.738;9.226;2023-03-01T09:11:31;28.80;;;18.63;;
1378;SDS011;683;48.738;9.226;2023-03-01T09:14:01;27.70;;;18.80;;
1378;SDS011;683;48.738;9.226;2023-03-01T09:16:31;23.57;;;17.07;;
1378;SDS011;683;48.738;9.226;2023-03-01T09:19:01;25.33;;;19.20;;
1378;SDS011;683;48.738;9.226;2023-03-01T09:21:29;31.37;;;20.77;;
1378;SDS011;683;48.738;9.226;2023-03-01T09:23:58;26.87;;;19.17;;
1378;SDS011;683;48.738;9.226;2023-03-01T09:26:25;26.90;;;19.37;;
1378;SDS011;683;48.738;9.226;2023-03-01T09:28:53;26.27;;;19.97;;
1378;SDS011;683;48.738;9.226;2023-03-01T09:31:23;27.83;;;18.57;;
1378;SDS011;683;48.738;9.226;2023-03-01T09:33:51;23.07;;;18.60;;
1378;SDS011;683;48.738;9.226;2023-03-01T09:36:21;25.87;;;19.17;;
1378;SDS011;683;48.738;9.226;2023-03-01T09:38:50;27.60;;;18.60;;
1378;SDS011;683;48.738;9.226;2023-03-01T09:41:23;31.83;;;20.10;;
1378;SDS011;683;48.738;9.226;2023-03-01T09:44:01;24.17;;;18.40;;
1378;SDS011;683;48.738;9.226;2023-03-01T09:46:37;21.67;;;17.17;;
1378;SDS011;683;48.738;9.226;2023-03-01T09:49:09;27.50;;;18.30;;
1378;SDS011;683;48.738;9.226;2023-03-01T09:51:38;24.80;;;18.80;;
1378;SDS011;683;48.738;9.226;2023-03-01T09:54:06;22.33;;;17.80;;
1378;SDS011;683;48.738;9.226;2023-03-01T09:56:36;24.83;;;18.00;;
1378;SDS011;683;48.738;9.226;2023-03-01T09:59:10;24.87;;;18.40;;
1378;SDS011;683;48.738;9.226;2023-03-01T10:01:50;23.87;;;19.73;;
1378;SDS011;683;48.738;9.226;2023-03-01T10:04:26;25.77;;;17.70;;
1378;SDS011;683;48.738;9.226;2023-03-01T10:07:05;26.00;;;18.47;;
1378;SDS011;683;48.738;9.226;2023-03-01T10:09:41;25.77;;;19.07;;
1378;SDS011;683;48.738;9.226;2023-03-01T10:12:12;28.20;;;17.57;;
1378;SDS011;683;48.738;9.226;2023-03-01T10:14:43;23.30;;;17.53;;
1378;SDS011;683;48.738;9.226;2023-03-01T10:17:20;26.47;;;19.27;;
1378;SDS011;683;48.738;9.226;2023-03-01T10:19:54;24.60;;;18.10;;
1378;SDS011;683;48.738;9.226;2023-03-01T10:22:27;25.27;;;18.60;;
1378;SDS011;683;48.738;9.226;2023-03-01T10:24:56;29.10;;;20.20;;
1378;SDS011;683;48.738;9.226;2023-03-01T10:27:26;26.57;;;18.40;;
1378;SDS011;683;48.738;9.226;2023-03-01T10:30:04;27.70;;;19.57;;
1378;SDS011;683;48.738;9.226;2023-03-01T10:32:39;25.40;;;19.00;;
1378;SDS011;683;48.738;9.226;2023-03-01T10:35:15;25.67;;;19.60;;
1378;SDS011;683;48.738;9.226;2023-03-01T10:37:56;27.00;;;19.63;;
1378;SDS011;683;48.738;9.226;2023-03-01T10:40:24;22.97;;;17.50;;
1378;SDS011;683;48.738;9.226;2023-03-01T10:42:51;28.10;;;17.77;;
1378;SDS011;683;48.738;9.226;2023-03-01T10:45:31;18.77;;;16.40;;
1378;SDS011;683;48.738;9.226;2023-03-01T10:48:06;23.60;;;17.23;;
1378;SDS011;683;48.738;9.226;2023-03-01T10:50:39;26.63;;;17.93;;
1378;SDS011;683;48.738;9.226;2023-03-01T10:53:18;24.63;;;18.27;;
1378;SDS011;683;48.738;9.226;2023-03-01T10:56:02;22.80;;;17.63;;
1378;SDS011;683;48.738;9.226;2023-03-01T10:58:35;29.20;;;21.03;;
1378;SDS011;683;48.738;9.226;2023-03-01T11:01:03;20.33;;;16.27;;
1378;SDS011;683;48.738;9.226;2023-03-01T11:03:34;23.90;;;17.37;;
1378;SDS011;683;48.738;9.226;2023-03-01T11:06:04;26.30;;;18.00;;
1378;SDS011;683;48.738;9.226;2023-03-01T11:08:46;25.67;;;18.40;;
1378;SDS011;683;48.738;9.226;2023-03-01T11:11:20;21.93;;;17.20;;
1378;SDS011;683;48.738;9.226;2023-03-01T11:13:54;24.93;;;17.67;;
1378;SDS011;683;48.738;9.226;2023-03-01T11:16:31;24.03;;;17.77;;
1378;SDS011;683;48.738;9.226;2023-03-01T11:19:13;23.60;;;17.20;;
1378;SDS011;683;48.738;9.226;2023-03-01T11:21:59;23.57;;;17.00;;
1378;SDS011;683;48.738;9.226;2023-03-01T11:24:32;24.73;;;17.90;;
1378;SDS011;683;48.738;9.226;2023-03-01T11:27:06;23.30;;;17.37;;
1378;SDS011;683;48.738;9.226;2023-03-01T11:29:41;26.57;;;17.33;;
1378;SDS011;683;48.738;9.226;2023-03-01T11:32:13;25.77;;;17.37;;
1378;SDS011;683;48.738;9.226;2023-03-01T11:34:44;30.67;;;18.90;;
1378;SDS011;683;48.738;9.226;2023-03-01T11:37:19;19.43;;;16.90;;
1378;SDS011;683;48.738;9.226;2023-03-01T11:39:53;27.60;;;17.23;;
1378;SDS011;683;48.738;9.226;2023-03-01T11:42:28;23.63;;;17.70;;
1378;SDS011;683;48.738;9.226;2023-03-01T11:45:06;24.50;;;17.20;;
1378;SDS011;683;48.738;9.226;2023-03-01T11:47:43;25.03;;;18.67;;
1378;SDS011;683;48.738;9.226;2023-03-01T11:50:27;24.83;;;17.17;;
1378;SDS011;683;48.738;9.226;2023-03-01T11:53:17;23.23;;;16.70;;
1378;SDS011;683;48.738;9.226;2023-03-01T11:56:03;22.73;;;17.03;;
1378;SDS011;683;48.738;9.226;2023-03-01T11:58:59;24.87;;;17.40;;
1378;SDS011;683;48.738;9.226;2023-03-01T12:01:54;25.10;;;16.43;;
1378;SDS011;683;48.738;9.226;2023-03-01T12:04:58;20.77;;;16.73;;
1378;SDS011;683;48.738;9.226;2023-03-01T12:07:39;25.10;;;16.37;;
1378;SDS011;683;48.738;9.226;2023-03-01T12:10:19;20.30;;;15.23;;
1378;SDS011;683;48.738;9.226;2023-03-01T12:12:58;24.63;;;16.10;;
1378;SDS011;683;48.738;9.226;2023-03-01T12:15:39;24.00;;;18.37;;
1378;SDS011;683;48.738;9.226;2023-03-01T12:18:23;18.90;;;16.20;;
1378;SDS011;683;48.738;9.226;2023-03-01T12:21:18;20.23;;;16.33;;
1378;SDS011;683;48.738;9.226;2023-03-01T12:27:17;21.90;;;16.30;;
1378;SDS011;683;48.738;9.226;2023-03-01T12:30:13;20.90;;;16.67;;
1378;SDS011;683;48.738;9.226;2023-03-01T12:32:52;20.83;;;16.60;;
1378;SDS011;683;48.738;9.226;2023-03-01T12:35:33;19.10;;;16.17;;
1378;SDS011;683;48.738;9.226;2023-03-01T12:38:15;18.10;;;14.57;;
1378;SDS011;683;48.738;9.226;2023-03-01T12:41:00;19.87;;;16.23;;
1378;SDS011;683;48.738;9.226;2023-03-01T12:43:50;23.13;;;16.23;;
1378;SDS011;683;48.738;9.226;2023-03-01T12:46:33;22.07;;;16.47;;
1378;SDS011;683;48.738;9.226;2023-03-01T12:49:12;18.53;;;15.40;;
1378;SDS011;683;48.738;9.226;2023-03-01T12:51:43;21.17;;;16.23;;
1378;SDS011;683;48.738;9.226;2023-03-01T12:54:21;21.97;;;16.77;;
1378;SDS011;683;48.738;9.226;2023-03-01T12:56:55;22.33;;;17.47;;
1378;SDS011;683;48.738;9.226;2023-03-01T12:59:28;22.70;;;17.03;;
1378;SDS011;683;48.738;9.226;2023-03-01T13:02:03;19.60;;;15.80;;
1378;SDS011;683;48.738;9.226;2023-03-01T13:04:44;21.87;;;15.90;;
1378;SDS011;683;48.738;9.226;2023-03-01T13:07:23;17.37;;;15.53;;
1378;SDS011;683;48.738;9.226;2023-03-01T13:09:59;21.47;;;16.83;;
1378;SDS011;683;48.738;9.226;2023-03-01T13:13:00;23.03;;;18.00;;
1378;SDS011;683;48.738;9.226;2023-03-01T13:15:36;18.47;;;16.13;;
1378;SDS011;683;48.738;9.226;2023-03-01T13:18:25;18.40;;;14.87;;
1378;SDS011;683;48.738;9.226;2023-03-01T13:20:58;18.87;;;16.90;;
1378;SDS011;683;48.738;9.226;2023-03-01T13:23:33;21.83;;;17.50;;
1378;SDS011;683;48.738;9.226;2023-03-01T13:26:12;18.10;;;16.17;;
1378;SDS011;683;48.738;9.226;2023-03-01T13:28:46;20.20;;;18.10;;
1378;SDS011;683;48.738;9.226;2023-03-01T13:34:40;19.27;;;17.00;;
1378;SDS011;683;48.738;9.226;2023-03-01T13:37:10;17.90;;;15.73;;
1378;SDS011;683;48.738;9.226;2023-03-01T13:39:45;16.70;;;15.00;;
1378;SDS011;683;48.738;9.226;2023-03-01T13:42:31;17.50;;;15.70;;
1378;SDS011;683;48.738;9.226;2023-03-01T13:45:16;16.30;;;13.60;;
1378;SDS011;683;48.738;9.226;2023-03-01T13:47:47;18.90;;;16.10;;
1378;SDS011;683;48.738;9.226;2023-03-01T13:50:24;17.83;;;16.03;;
1378;SDS011;683;48.738;9.226;2023-03-01T13:52:55;18.53;;;15.50;;
1378;SDS011;683;48.738;9.226;2023-03-01T13:55:27;15.07;;;13.57;;
1378;SDS011;683;48.738;9.226;2023-03-01T13:58:02;14.80;;;13.40;;
1378;SDS011;683;48.738;9.226;2023-03-01T14:00:39;17.30;;;15.50;;
1378;SDS011;683;48.738;9.226;2023-03-01T14:03:11;19.13;;;15.10;;
1378;SDS011;683;48.738;9.226;2023-03-01T14:05:43;20.23;;;18.13;;
1378;SDS011;683;48.738;9.226;2023-03-01T14:08:24;19.47;;;17.47;;
1378;SDS011;683;48.738;9.226;2023-03-01T14:11:05;20.40;;;18.20;;
1378;SDS011;683;48.738;9.226;2023-03-01T14:13:49;23.37;;;20.10;;
1378;SDS011;683;48.738;9.226;2023-03-01T14:16:29;23.67;;;18.73;;
1378;SDS011;683;48.738;9.226;2023-03-01T14:19:07;22.23;;;19.47;;
1378;SDS011;683;48.738;9.226;2023-03-01T14:21:47;20.87;;;18.70;;
1378;SDS011;683;48.738;9.226;2023-03-01T14:24:26;20.87;;;18.70;;
1378;SDS011;683;48.738;9.226;2023-03-01T14:26:53;23.57;;;19.03;;
1378;SDS011;683;48.738;9.226;2023-03-01T14:29:24;22.43;;;19.17;;
1378;SDS011;683;48.738;9.226;2023-03-01T14:31:53;22.50;;;19.23;;
1378;SDS011;683;48.738;9.226;2023-03-01T14:34:21;21.87;;;18.57;;
1378;SDS011;683;48.738;9.226;2023-03-01T14:36:52;20.60;;;18.50;;
1378;SDS011;683;48.738;9.226;2023-03-01T14:39:23;19.73;;;17.63;;
1378;SDS011;683;48.738;9.226;2023-03-01T14:41:52;21.70;;;18.83;;
1378;SDS011;683;48.738;9.226;2023-03-01T14:44:21;20.40;;;18.17;;
1378;SDS011;683;48.738;9.226;2023-03-01T14:46:51;20.33;;;16.97;;
1378;SDS011;683;48.738;9.226;2023-03-01T14:49:21;18.90;;;16.87;;
1378;SDS011;683;48.738;9.226;2023-03-01T14:51:53;19.93;;;17.60;;
1378;SDS011;683;48.738;9.226;2023-03-01T14:54:24;20.60;;;17.87;;
1378;SDS011;683;48.738;9.226;2023-03-01T14:56:57;20.83;;;16.77;;
1378;SDS011;683;48.738;9.226;2023-03-01T14:59:28;19.60;;;17.47;;
1378;SDS011;683;48.738;9.226;2023-03-01T15:01:56;22.07;;;17.83;;
1378;SDS011;683;48.738;9.226;2023-03-01T15:04:26;21.50;;;17.03;;
1378;SDS011;683;48.738;9.226;2023-03-01T15:06:56;21.67;;;17.77;;
1378;SDS011;683;48.738;9.226;2023-03-01T15:09:30;20.17;;;16.93;;
1378;SDS011;683;48.738;9.226;2023-03-01T15:12:00;18.57;;;16.40;;
1378;SDS011;683;48.738;9.226;2023-03-01T15:15:26;21.67;;;17.03;;
1378;SDS011;683;48.738;9.226;2023-03-01T15:17:59;18.83;;;16.07;;
1378;SDS011;683;48.738;9.226;2023-03-01T15:20:29;20.10;;;16.40;;
1378;SDS011;683;48.738;9.226;2023-03-01T15:23:02;19.50;;;17.37;;
1378;SDS011;683;48.738;9.226;2023-03-01T15:25:30;18.17;;;16.03;;
1378;SDS011;683;48.738;9.226;2023-03-01T15:27:59;22.97;;;15.83;;
1378;SDS011;683;48.738;9.226;2023-03-01T15:30:29;21.80;;;15.77;;
1378;SDS011;683;48.738;9.226;2023-03-01T15:33:27;18.30;;;15.07;;
1378;SDS011;683;48.738;9.226;2023-03-01T15:35:57;22.73;;;15.53;;
1378;SDS011;683;48.738;9.226;2023-03-01T15:38:34;20.10;;;15.73;;
1378;SDS011;683;48.738;9.226;2023-03-01T15:41:05;16.87;;;14.83;;